createdAt,value
2022-08-22T00:00:24.382Z,17.70
2022-08-22T00:02:58.875Z,18.32
2022-08-22T00:06:11.768Z,17.64
2022-08-22T00:08:46.204Z,17.59
2022-08-22T00:11:18.691Z,17.62
2022-08-22T00:14:01.259Z,17.59
2022-08-22T00:16:35.213Z,17.58
2022-08-22T00:19:10.049Z,17.47
2022-08-22T00:21:44.716Z,17.46
2022-08-22T00:24:21.933Z,17.48
2022-08-22T00:26:54.101Z,17.47
2022-08-22T00:29:28.022Z,17.45
2022-08-22T00:32:03.902Z,17.45
2022-08-22T00:34:36.458Z,17.46
2022-08-22T00:37:08.300Z,17.47
2022-08-22T00:39:41.159Z,17.48
2022-08-22T00:42:31.232Z,17.46
2022-08-22T00:45:26.062Z,17.39
2022-08-22T00:48:03.730Z,17.34
2022-08-22T00:50:53.173Z,17.33
2022-08-22T00:53:44.836Z,17.34
2022-08-22T00:56:46.103Z,17.33
2022-08-22T00:59:34.343Z,17.33
2022-08-22T01:02:16.444Z,17.30
2022-08-22T01:04:51.511Z,17.30
2022-08-22T01:07:46.465Z,17.29
2022-08-22T01:10:30.536Z,17.25
2022-08-22T01:13:13.093Z,17.28
2022-08-22T01:15:42.426Z,17.26
2022-08-22T01:18:43.084Z,17.26
2022-08-22T01:22:01.743Z,17.30
2022-08-22T01:25:12.909Z,17.32
2022-08-22T01:28:13.677Z,17.31
2022-08-22T01:31:17.182Z,17.31
2022-08-22T01:34:13.234Z,17.29
2022-08-22T01:36:52.049Z,17.26
2022-08-22T01:39:46.480Z,17.29
2022-08-22T01:42:55.599Z,17.31
2022-08-22T01:45:40.008Z,17.31
2022-08-22T01:48:12.979Z,17.30
2022-08-22T01:50:45.358Z,17.30
2022-08-22T01:53:19.706Z,17.30
2022-08-22T01:55:57.017Z,17.27
2022-08-22T01:58:27.811Z,17.30
2022-08-22T02:01:04.842Z,17.30
2022-08-22T02:03:35.380Z,17.31
2022-08-22T02:06:08.891Z,17.30
2022-08-22T02:08:48.255Z,17.30
2022-08-22T02:11:39.716Z,17.28
2022-08-22T02:14:15.946Z,17.29
2022-08-22T02:16:46.174Z,17.29
2022-08-22T02:19:34.920Z,17.28
2022-08-22T02:22:09.474Z,17.25
2022-08-22T02:24:47.403Z,17.25
2022-08-22T02:27:32.773Z,17.29
2022-08-22T02:30:05.931Z,17.31
2022-08-22T02:32:44.679Z,17.29
2022-08-22T02:35:22.845Z,17.29
2022-08-22T02:38:05.546Z,17.25
2022-08-22T02:40:37.201Z,17.25
2022-08-22T02:43:15.698Z,17.24
2022-08-22T02:45:50.079Z,17.22
2022-08-22T02:48:28.486Z,17.21
2022-08-22T02:51:01.018Z,17.18
2022-08-22T02:53:35.135Z,17.18
2022-08-22T02:56:08.778Z,17.18
2022-08-22T02:58:43.620Z,17.18
2022-08-22T03:01:36.084Z,17.15
2022-08-22T03:04:45.947Z,17.15
2022-08-22T03:07:24.707Z,17.14
2022-08-22T03:10:02.924Z,17.16
2022-08-22T03:12:34.571Z,17.16
2022-08-22T03:15:08.879Z,17.17
2022-08-22T03:17:40.641Z,17.14
2022-08-22T03:20:14.800Z,17.11
2022-08-22T03:22:48.312Z,17.14
2022-08-22T03:25:27.834Z,17.09
2022-08-22T03:28:00.230Z,17.08
2022-08-22T03:30:37.007Z,17.08
2022-08-22T03:33:34.609Z,17.07
2022-08-22T03:36:09.457Z,17.06
2022-08-22T03:39:03.208Z,17.05
2022-08-22T03:42:04.328Z,17.01
2022-08-22T03:44:48.171Z,17.00
2022-08-22T03:47:50.098Z,16.97
2022-08-22T03:50:54.618Z,16.93
2022-08-22T03:53:51.156Z,16.94
2022-08-22T03:57:06.403Z,16.93
2022-08-22T04:00:03.003Z,16.92
2022-08-22T04:03:05.567Z,16.94
2022-08-22T04:05:53.420Z,16.93
2022-08-22T04:08:54.641Z,16.92
2022-08-22T04:11:56.410Z,16.91
2022-08-22T04:14:51.288Z,16.88
2022-08-22T04:17:38.123Z,16.84
2022-08-22T04:20:16.920Z,16.82
2022-08-22T04:23:11.091Z,16.83
2022-08-22T04:25:40.591Z,16.83
2022-08-22T04:28:14.854Z,16.81
2022-08-22T04:30:48.007Z,16.80
2022-08-22T04:33:20.556Z,16.79
2022-08-22T04:35:59.115Z,16.79
2022-08-22T04:38:29.872Z,16.69
2022-08-22T04:41:04.524Z,16.70
2022-08-22T04:43:38.323Z,16.67
2022-08-22T04:46:14.800Z,16.63
2022-08-22T04:48:45.706Z,16.69
2022-08-22T04:51:18.178Z,16.65
2022-08-22T04:54:12.652Z,16.62
2022-08-22T04:56:50.124Z,16.59
2022-08-22T04:59:19.442Z,16.58
2022-08-22T05:01:55.101Z,16.55
2022-08-22T05:04:27.878Z,16.56
2022-08-22T05:07:00.308Z,16.57
2022-08-22T05:09:30.711Z,16.55
2022-08-22T05:12:06.266Z,16.54
2022-08-22T05:14:38.826Z,16.55
2022-08-22T05:17:10.507Z,16.54
2022-08-22T05:19:45.491Z,16.56
2022-08-22T05:22:18.823Z,16.55
2022-08-22T05:24:49.572Z,16.49
2022-08-22T05:27:20.307Z,16.52
2022-08-22T05:29:52.138Z,16.51
2022-08-22T05:32:27.549Z,16.54
2022-08-22T05:34:59.654Z,16.55
2022-08-22T05:37:39.835Z,16.55
2022-08-22T05:40:09.552Z,16.59
2022-08-22T05:42:38.374Z,16.60
2022-08-22T05:45:12.336Z,16.63
2022-08-22T05:47:43.720Z,16.67
2022-08-22T05:50:15.152Z,16.69
2022-08-22T05:52:58.468Z,16.73
2022-08-22T05:55:29.500Z,16.74
2022-08-22T05:58:14.373Z,16.78
2022-08-22T06:00:44.570Z,16.81
2022-08-22T06:03:19.902Z,16.81
2022-08-22T06:05:52.956Z,16.83
2022-08-22T06:08:24.771Z,16.85
2022-08-22T06:10:55.274Z,16.89
2022-08-22T06:13:30.404Z,16.94
2022-08-22T06:16:07.127Z,16.99
2022-08-22T06:18:41.499Z,17.03
2022-08-22T06:21:11.937Z,17.07
2022-08-22T06:23:45.677Z,17.10
2022-08-22T06:26:20.212Z,17.17
2022-08-22T06:28:54.640Z,17.21
2022-08-22T06:31:26.189Z,17.27
2022-08-22T06:34:00.470Z,17.29
2022-08-22T06:36:31.793Z,17.37
2022-08-22T06:39:18.671Z,17.45
2022-08-22T06:41:52.336Z,17.49
2022-08-22T06:44:23.653Z,17.55
2022-08-22T06:46:55.820Z,17.58
2022-08-22T06:49:26.910Z,17.63
2022-08-22T06:51:59.635Z,17.64
2022-08-22T06:54:34.254Z,17.72
2022-08-22T06:57:04.024Z,17.72
2022-08-22T06:59:35.463Z,17.76
2022-08-22T07:02:07.059Z,17.83
2022-08-22T07:04:37.404Z,17.87
2022-08-22T07:07:06.547Z,17.94
2022-08-22T07:09:37.183Z,17.99
2022-08-22T07:12:12.126Z,18.04
2022-08-22T07:14:42.445Z,18.01
2022-08-22T07:17:17.884Z,18.10
2022-08-22T07:19:50.693Z,18.16
2022-08-22T07:22:24.534Z,18.21
2022-08-22T07:24:55.040Z,18.19
2022-08-22T07:27:37.529Z,18.27
2022-08-22T07:30:10.726Z,18.29
2022-08-22T07:32:46.360Z,18.34
2022-08-22T07:35:18.350Z,18.39
2022-08-22T07:37:55.506Z,18.36
2022-08-22T07:40:28.376Z,18.42
2022-08-22T07:43:00.915Z,18.50
2022-08-22T07:45:34.929Z,18.60
2022-08-22T07:48:17.210Z,18.66
2022-08-22T07:51:01.055Z,18.74
2022-08-22T07:53:35.280Z,18.80
2022-08-22T07:56:04.859Z,18.80
2022-08-22T07:58:35.024Z,18.84
2022-08-22T08:01:03.477Z,18.90
2022-08-22T08:03:32.380Z,18.89
2022-08-22T08:06:02.998Z,18.96
2022-08-22T08:08:34.756Z,19.03
2022-08-22T08:11:04.737Z,19.11
2022-08-22T08:13:36.485Z,19.17
2022-08-22T08:16:07.382Z,19.24
2022-08-22T08:18:37.110Z,19.27
2022-08-22T08:21:10.792Z,19.35
2022-08-22T08:23:42.260Z,19.41
2022-08-22T08:26:15.825Z,19.43
2022-08-22T08:28:45.788Z,19.50
2022-08-22T08:31:20.772Z,19.61
2022-08-22T08:33:51.664Z,19.64
2022-08-22T08:36:36.840Z,19.69
2022-08-22T08:39:18.238Z,19.73
2022-08-22T08:42:06.234Z,19.85
2022-08-22T08:45:04.418Z,19.83
2022-08-22T08:47:45.954Z,19.90
2022-08-22T08:50:26.219Z,19.98
2022-08-22T08:53:07.049Z,20.00
2022-08-22T08:55:46.135Z,20.07
2022-08-22T08:58:28.594Z,20.08
2022-08-22T09:01:04.000Z,20.13
2022-08-22T09:04:06.808Z,20.24
2022-08-22T09:07:08.097Z,20.13
2022-08-22T09:09:54.539Z,20.21
2022-08-22T09:12:56.075Z,20.32
2022-08-22T09:15:56.286Z,20.38
2022-08-22T09:18:54.184Z,20.45
2022-08-22T09:21:43.712Z,20.52
2022-08-22T09:24:45.043Z,20.51
2022-08-22T09:27:17.302Z,20.57
2022-08-22T09:29:55.554Z,20.62
2022-08-22T09:32:39.412Z,20.70
2022-08-22T09:35:17.000Z,20.64
2022-08-22T09:38:08.165Z,20.74
2022-08-22T09:40:40.895Z,20.81
2022-08-22T09:43:14.190Z,20.73
2022-08-22T09:45:53.436Z,20.83
2022-08-22T09:48:32.522Z,20.87
2022-08-22T09:51:29.122Z,20.97
2022-08-22T09:54:12.095Z,21.04
2022-08-22T09:56:45.691Z,21.15
2022-08-22T09:59:21.721Z,21.10
2022-08-22T10:01:55.618Z,21.13
2022-08-22T10:04:42.539Z,21.17
2022-08-22T10:07:28.380Z,21.26
2022-08-22T10:10:04.507Z,21.29
2022-08-22T10:12:36.489Z,21.35
2022-08-22T10:15:16.349Z,21.42
2022-08-22T10:17:55.474Z,21.53
2022-08-22T10:20:28.312Z,21.60
2022-08-22T10:23:01.353Z,21.70
2022-08-22T10:25:35.314Z,21.72
2022-08-22T10:28:20.641Z,21.82
2022-08-22T10:31:02.142Z,21.85
2022-08-22T10:33:33.431Z,21.83
2022-08-22T10:36:07.777Z,21.88
2022-08-22T10:38:46.804Z,21.91
2022-08-22T10:41:26.992Z,21.96
2022-08-22T10:44:03.908Z,21.93
2022-08-22T10:46:38.127Z,22.00
2022-08-22T10:49:09.968Z,22.05
2022-08-22T10:51:44.951Z,22.12
2022-08-22T10:54:29.800Z,22.16
2022-08-22T10:57:09.495Z,22.06
2022-08-22T10:59:41.738Z,22.08
2022-08-22T11:02:23.228Z,22.07
2022-08-22T11:05:09.513Z,22.19
2022-08-22T11:07:48.754Z,22.18
2022-08-22T11:10:26.724Z,22.19
2022-08-22T11:13:13.899Z,22.19
2022-08-22T11:15:53.384Z,22.23
2022-08-22T11:18:31.431Z,22.23
2022-08-22T11:21:03.283Z,22.34
2022-08-22T11:23:40.675Z,22.26
2022-08-22T11:26:29.328Z,22.35
2022-08-22T11:29:33.103Z,22.39
2022-08-22T11:32:08.285Z,22.39
2022-08-22T11:34:51.070Z,22.44
2022-08-22T11:37:42.579Z,22.51
2022-08-22T11:40:25.576Z,22.57
2022-08-22T11:43:32.595Z,22.66
2022-08-22T11:46:19.767Z,22.81
2022-08-22T11:48:59.779Z,22.88
2022-08-22T11:51:55.487Z,22.90
2022-08-22T11:54:31.343Z,22.94
2022-08-22T11:57:05.266Z,22.96
2022-08-22T11:59:53.405Z,23.06
2022-08-22T12:02:28.329Z,23.15
2022-08-22T12:05:05.831Z,23.15
2022-08-22T12:07:39.467Z,23.28
2022-08-22T12:10:14.954Z,23.26
2022-08-22T12:12:55.464Z,23.24
2022-08-22T12:15:26.136Z,23.27
2022-08-22T12:18:30.787Z,23.33
2022-08-22T12:21:13.196Z,23.34
2022-08-22T12:24:05.986Z,23.48
2022-08-22T12:26:48.237Z,23.54
2022-08-22T12:29:34.138Z,23.48
2022-08-22T12:32:34.772Z,23.51
2022-08-22T12:35:17.615Z,23.43
2022-08-22T12:37:52.753Z,23.54
2022-08-22T12:40:43.577Z,23.51
2022-08-22T12:43:32.253Z,23.58
2022-08-22T12:46:14.405Z,23.55
2022-08-22T12:48:54.316Z,23.65
2022-08-22T12:51:29.552Z,23.65
2022-08-22T12:54:22.576Z,23.63
2022-08-22T12:57:00.312Z,23.74
2022-08-22T12:59:31.357Z,23.95
2022-08-22T13:02:02.360Z,23.91
2022-08-22T13:04:34.181Z,23.85
2022-08-22T13:07:22.635Z,23.82
2022-08-22T13:09:53.290Z,23.78
2022-08-22T13:12:27.707Z,23.79
2022-08-22T13:15:02.957Z,23.73
2022-08-22T13:17:32.124Z,23.75
2022-08-22T13:20:10.636Z,23.85
2022-08-22T13:22:41.580Z,23.91
2022-08-22T13:25:25.597Z,23.95
2022-08-22T13:27:59.191Z,23.98
2022-08-22T13:30:34.935Z,24.17
2022-08-22T13:33:09.544Z,24.17
2022-08-22T13:35:44.611Z,24.23
2022-08-22T13:38:25.671Z,24.16
2022-08-22T13:40:56.468Z,24.16
2022-08-22T13:43:30.321Z,24.24
2022-08-22T13:46:02.129Z,24.22
2022-08-22T13:48:49.610Z,24.25
2022-08-22T13:51:23.576Z,24.24
2022-08-22T13:54:00.757Z,24.39
2022-08-22T13:56:38.678Z,24.46
2022-08-22T13:59:46.981Z,24.38
2022-08-22T14:02:17.797Z,24.51
2022-08-22T14:04:47.183Z,24.55
2022-08-22T14:07:25.591Z,24.37
2022-08-22T14:09:56.911Z,24.43
2022-08-22T14:12:27.116Z,24.59
2022-08-22T14:15:00.672Z,24.56
2022-08-22T14:17:33.005Z,24.39
2022-08-22T14:20:06.922Z,24.43
2022-08-22T14:22:41.348Z,24.66
2022-08-22T14:25:17.902Z,24.79
2022-08-22T14:27:58.139Z,24.95
2022-08-22T14:30:30.630Z,24.98
2022-08-22T14:33:03.326Z,25.16
2022-08-22T14:35:37.863Z,25.29
2022-08-22T14:38:27.309Z,25.47
2022-08-22T14:41:03.889Z,25.63
2022-08-22T14:43:51.548Z,25.78
2022-08-22T14:46:26.664Z,25.60
2022-08-22T14:49:25.291Z,25.47
2022-08-22T14:51:59.477Z,25.37
2022-08-22T14:54:29.281Z,25.17
2022-08-22T14:56:59.169Z,25.07
2022-08-22T14:59:41.257Z,25.04
2022-08-22T15:02:16.811Z,24.98
2022-08-22T15:04:47.819Z,25.08
2022-08-22T15:07:23.794Z,24.87
2022-08-22T15:09:54.807Z,24.80
2022-08-22T15:12:27.687Z,24.61
2022-08-22T15:14:58.439Z,24.69
2022-08-22T15:17:38.829Z,24.67
2022-08-22T15:20:12.739Z,24.63
2022-08-22T15:22:45.454Z,24.66
2022-08-22T15:25:17.066Z,24.67
2022-08-22T15:27:48.990Z,24.65
2022-08-22T15:30:20.748Z,24.67
2022-08-22T15:32:51.394Z,24.55
2022-08-22T15:35:32.195Z,24.50
2022-08-22T15:38:02.841Z,24.56
2022-08-22T15:40:40.697Z,24.67
2022-08-22T15:43:21.008Z,24.77
2022-08-22T15:45:50.139Z,24.95
2022-08-22T15:48:32.146Z,25.07
2022-08-22T15:51:04.637Z,25.07
2022-08-22T15:54:01.612Z,25.08
2022-08-22T15:56:32.410Z,25.17
2022-08-22T15:59:48.130Z,25.11
2022-08-22T16:02:25.432Z,25.28
2022-08-22T16:05:04.956Z,25.15
2022-08-22T16:07:40.728Z,25.14
2022-08-22T16:10:12.723Z,25.14
2022-08-22T16:12:44.052Z,25.00
2022-08-22T16:15:45.429Z,24.97
2022-08-22T16:18:46.598Z,24.92
2022-08-22T16:21:17.771Z,24.84
2022-08-22T16:24:24.010Z,24.77
2022-08-22T16:26:52.650Z,24.69
2022-08-22T16:29:35.884Z,24.67
2022-08-22T16:32:12.124Z,24.67
2022-08-22T16:34:42.925Z,24.60
2022-08-22T16:37:50.456Z,24.47
2022-08-22T16:40:26.052Z,24.33
2022-08-22T16:43:12.577Z,24.18
2022-08-22T16:45:43.034Z,24.11
2022-08-22T16:48:28.262Z,23.97
2022-08-22T16:51:11.941Z,23.83
2022-08-22T16:54:07.294Z,23.85
2022-08-22T16:56:41.034Z,23.83
2022-08-22T16:59:38.181Z,23.60
2022-08-22T17:02:27.666Z,23.49
2022-08-22T17:05:15.008Z,23.35
2022-08-22T17:07:53.665Z,23.15
2022-08-22T17:10:39.103Z,23.15
2022-08-22T17:13:27.491Z,23.09
2022-08-22T17:16:05.896Z,23.15
2022-08-22T17:18:51.996Z,23.04
2022-08-22T17:21:26.136Z,22.96
2022-08-22T17:24:01.563Z,22.72
2022-08-22T17:26:42.152Z,22.72
2022-08-22T17:29:17.908Z,22.84
2022-08-22T17:31:50.907Z,22.86
2022-08-22T17:34:25.985Z,22.88
2022-08-22T17:37:04.549Z,22.66
2022-08-22T17:39:43.904Z,22.64
2022-08-22T17:42:24.965Z,22.62
2022-08-22T17:45:00.110Z,22.57
2022-08-22T17:47:33.013Z,22.58
2022-08-22T17:50:05.193Z,22.56
2022-08-22T17:52:38.836Z,22.48
2022-08-22T17:55:15.504Z,22.46
2022-08-22T17:57:48.610Z,22.39
2022-08-22T18:00:20.847Z,22.35
2022-08-22T18:02:55.017Z,22.34
2022-08-22T18:05:27.599Z,22.22
2022-08-22T18:08:04.805Z,22.18
2022-08-22T18:10:40.255Z,22.11
2022-08-22T18:13:11.517Z,21.90
2022-08-22T18:15:48.708Z,21.83
2022-08-22T18:18:30.070Z,21.81
2022-08-22T18:21:02.868Z,21.69
2022-08-22T18:23:39.063Z,21.63
2022-08-22T18:26:25.491Z,21.62
2022-08-22T18:28:58.773Z,21.57
2022-08-22T18:31:39.404Z,21.53
2022-08-22T18:34:17.107Z,21.51
2022-08-22T18:36:51.689Z,21.32
2022-08-22T18:39:26.381Z,21.37
2022-08-22T18:42:02.155Z,21.25
2022-08-22T18:44:34.387Z,21.18
2022-08-22T18:47:12.838Z,21.14
2022-08-22T18:49:45.737Z,21.15
2022-08-22T18:52:38.528Z,21.18
2022-08-22T18:55:40.383Z,21.18
2022-08-22T18:58:33.302Z,21.20
2022-08-22T19:01:10.965Z,21.17
2022-08-22T19:04:05.427Z,21.13
2022-08-22T19:06:50.872Z,21.07
2022-08-22T19:10:05.128Z,21.01
2022-08-22T19:12:45.048Z,21.01
2022-08-22T19:15:33.428Z,21.00
2022-08-22T19:18:34.438Z,20.94
2022-08-22T19:21:35.122Z,20.88
2022-08-22T19:24:07.692Z,20.84
2022-08-22T19:26:39.302Z,20.84
2022-08-22T19:29:24.418Z,20.80
2022-08-22T19:31:54.664Z,20.76
2022-08-22T19:34:38.781Z,20.71
2022-08-22T19:37:32.187Z,20.64
2022-08-22T19:40:05.094Z,20.60
2022-08-22T19:42:37.176Z,20.53
2022-08-22T19:45:09.968Z,20.38
2022-08-22T19:47:39.562Z,20.33
2022-08-22T19:50:14.541Z,20.30
2022-08-22T19:55:54.490Z,20.14
2022-08-22T19:58:30.265Z,20.04
2022-08-22T20:01:06.259Z,20.06
2022-08-22T20:03:43.740Z,19.86
2022-08-22T20:06:33.717Z,20.00
2022-08-22T20:09:18.472Z,20.01
2022-08-22T20:11:56.702Z,20.00
2022-08-22T20:14:30.606Z,20.03
2022-08-22T20:17:08.919Z,19.97
2022-08-22T20:19:42.856Z,19.98
2022-08-22T20:22:12.735Z,19.99
2022-08-22T20:24:44.184Z,19.96
2022-08-22T20:27:16.380Z,20.01
2022-08-22T20:29:50.210Z,20.06
2022-08-22T20:32:22.099Z,20.03
2022-08-22T20:34:52.007Z,20.03
2022-08-22T20:37:40.360Z,20.03
2022-08-22T20:40:50.833Z,20.02
2022-08-22T20:43:23.939Z,20.03
2022-08-22T20:45:59.197Z,20.03
2022-08-22T20:48:33.846Z,20.03
2022-08-22T20:51:04.944Z,20.02
2022-08-22T20:53:33.178Z,20.00
2022-08-22T20:56:10.480Z,19.98
2022-08-22T20:58:43.887Z,19.99
2022-08-22T21:01:12.525Z,19.97
2022-08-22T21:03:43.258Z,19.97
2022-08-22T21:06:13.660Z,19.94
2022-08-22T21:08:43.785Z,19.92
2022-08-22T21:11:36.532Z,19.90
2022-08-22T21:14:20.255Z,19.89
2022-08-22T21:16:48.400Z,19.86
2022-08-22T21:19:20.563Z,19.86
2022-08-22T21:21:48.700Z,19.84
2022-08-22T21:24:16.753Z,19.82
2022-08-22T21:26:48.980Z,19.80
2022-08-22T21:29:26.463Z,19.77
2022-08-22T21:32:06.580Z,19.77
2022-08-22T21:34:37.153Z,19.72
2022-08-22T21:37:09.967Z,19.73
2022-08-22T21:39:43.935Z,19.70
2022-08-22T21:42:13.926Z,19.68
2022-08-22T21:44:44.638Z,19.66
2022-08-22T21:47:23.303Z,19.61
2022-08-22T21:50:26.884Z,19.51
2022-08-22T21:53:09.153Z,19.50
2022-08-22T21:55:39.804Z,19.49
2022-08-22T21:58:36.323Z,19.45
2022-08-22T22:01:27.801Z,19.44
2022-08-22T22:03:56.262Z,19.42
2022-08-22T22:06:24.220Z,19.40
2022-08-22T22:08:52.292Z,19.36
2022-08-22T22:11:20.418Z,19.34
2022-08-22T22:13:49.004Z,19.30
2022-08-22T22:16:21.755Z,19.24
2022-08-22T22:18:49.771Z,19.20
2022-08-22T22:21:17.841Z,19.06
2022-08-22T22:23:45.928Z,19.05
2022-08-22T22:26:14.300Z,19.05
2022-08-22T22:28:47.262Z,19.07
2022-08-22T22:31:15.757Z,19.03
2022-08-22T22:33:45.143Z,18.96
2022-08-22T22:36:15.696Z,18.94
2022-08-22T22:38:43.755Z,18.90
2022-08-22T22:41:12.714Z,18.85
2022-08-22T22:43:40.825Z,18.86
2022-08-22T22:46:09.014Z,18.85
2022-08-22T22:48:36.973Z,18.82
2022-08-22T22:51:09.685Z,18.79
2022-08-22T22:53:42.696Z,18.75
2022-08-22T22:56:12.951Z,18.70
2022-08-22T22:58:42.337Z,18.63
2022-08-22T23:01:11.424Z,18.65
2022-08-22T23:03:39.564Z,18.64
2022-08-22T23:06:12.662Z,18.55
2022-08-22T23:08:40.852Z,18.52
2022-08-22T23:11:11.796Z,18.52
2022-08-22T23:13:41.714Z,18.50
2022-08-22T23:16:13.698Z,18.44
2022-08-22T23:18:41.781Z,18.41
2022-08-22T23:21:16.238Z,18.43
2022-08-22T23:23:44.765Z,18.43
2022-08-22T23:26:13.401Z,18.40
2022-08-22T23:28:41.692Z,18.35
2022-08-22T23:31:11.668Z,18.33
2022-08-22T23:33:39.691Z,18.34
2022-08-22T23:36:11.847Z,18.31
2022-08-22T23:38:41.274Z,18.23
2022-08-22T23:41:10.962Z,18.21
2022-08-22T23:43:43.578Z,18.19
2022-08-22T23:46:11.919Z,18.15
2022-08-22T23:48:39.971Z,18.14
2022-08-22T23:51:08.159Z,18.13
2022-08-22T23:53:36.254Z,18.07
2022-08-22T23:56:19.836Z,18.03
2022-08-22T23:58:49.170Z,17.97
